createdAt,value
2018-04-06T00:00:46.449Z,8.05
2018-04-06T00:01:46.751Z,8.09
2018-04-06T00:02:46.486Z,8.03
2018-04-06T00:03:46.211Z,8.09
2018-04-06T00:04:46.510Z,8.01
2018-04-06T00:05:46.797Z,8
2018-04-06T00:06:46.539Z,7.95
2018-04-06T00:07:46.548Z,8.03
2018-04-06T00:08:46.837Z,8.03
2018-04-06T00:09:46.570Z,8.03
2018-04-06T00:10:46.582Z,8
2018-04-06T00:11:46.931Z,7.98
2018-04-06T00:12:46.323Z,8.03
2018-04-06T00:13:47.210Z,8.01
2018-04-06T00:14:46.919Z,8.03
2018-04-06T00:15:46.366Z,8.03
2018-04-06T00:16:46.657Z,8.06
2018-04-06T00:17:47.086Z,8
2018-04-06T00:18:46.964Z,8.1
2018-04-06T00:19:46.694Z,8.06
2018-04-06T00:20:46.713Z,8.06
2018-04-06T00:21:46.775Z,8.06
2018-04-06T00:22:47.018Z,8.1
2018-04-06T00:23:47.037Z,8.09
2018-04-06T00:24:46.759Z,8.13
2018-04-06T00:25:46.491Z,8.01
2018-04-06T00:26:47.126Z,8.06
2018-04-06T00:27:47.080Z,8.05
2018-04-06T00:28:46.815Z,8.1
2018-04-06T00:29:47.114Z,8.03
2018-04-06T00:30:47.128Z,8.1
2018-04-06T00:31:47.130Z,8.09
2018-04-06T00:32:46.867Z,8.1
2018-04-06T00:33:47.162Z,8.08
2018-04-06T00:34:47.173Z,8.1
2018-04-06T00:35:46.904Z,8.01
2018-04-06T00:36:46.918Z,8.09
2018-04-06T00:37:47.219Z,8
2018-04-06T00:38:46.658Z,8
2018-04-06T00:39:46.952Z,8.09
2018-04-06T00:40:47.258Z,8.03
2018-04-06T00:41:47.032Z,8.09
2018-04-06T00:42:47.003Z,8.05
2018-04-06T00:43:47.299Z,8.09
2018-04-06T00:44:47.306Z,8.1
2018-04-06T00:45:47.031Z,8.13
2018-04-06T00:46:47.052Z,8.1
2018-04-06T00:47:47.348Z,8.1
2018-04-06T00:48:47.350Z,8.09
2018-04-06T00:49:46.801Z,8.08
2018-04-06T00:50:47.099Z,8.09
2018-04-06T00:51:47.392Z,8.1
2018-04-06T00:52:47.412Z,8.12
2018-04-06T00:53:47.417Z,8.12
2018-04-06T00:54:47.428Z,8.1
2018-04-06T00:55:47.162Z,8.1
2018-04-06T00:56:47.221Z,8.03
2018-04-06T00:57:47.186Z,7.97
2018-04-06T00:58:47.198Z,8.03
2018-04-06T00:59:47.494Z,7.98
2018-04-06T01:00:47.505Z,8.03
2018-04-06T01:01:47.289Z,8.03
2018-04-06T01:02:46.967Z,8.03
2018-04-06T01:03:47.547Z,8.01
2018-04-06T01:04:47.272Z,8
2018-04-06T01:05:47.574Z,7.98
2018-04-06T01:06:47.580Z,8.01
2018-04-06T01:07:47.317Z,7.98
2018-04-06T01:08:47.325Z,7.98
2018-04-06T01:09:47.627Z,8.01
2018-04-06T01:10:47.650Z,8
2018-04-06T01:11:47.648Z,7.98
2018-04-06T01:12:47.657Z,8.09
2018-04-06T01:13:47.461Z,8.01
2018-04-06T01:14:47.402Z,8
2018-04-06T01:15:47.413Z,8
2018-04-06T01:16:47.770Z,7.93
2018-04-06T01:17:47.723Z,8
2018-04-06T01:18:47.735Z,7.94
2018-04-06T01:19:47.753Z,7.91
2018-04-06T01:20:47.762Z,7.91
2018-04-06T01:21:47.494Z,7.91
2018-04-06T01:22:47.510Z,7.93
2018-04-06T01:23:47.525Z,7.93
2018-04-06T01:24:47.817Z,7.9
2018-04-06T01:25:47.832Z,7.93
2018-04-06T01:26:47.654Z,7.91
2018-04-06T01:27:47.851Z,7.95
2018-04-06T01:28:47.869Z,7.85
2018-04-06T01:29:47.883Z,7.93
2018-04-06T01:30:47.890Z,7.79
2018-04-06T01:31:47.669Z,7.79
2018-04-06T01:32:47.351Z,7.77
2018-04-06T01:33:47.938Z,7.87
2018-04-06T01:34:47.941Z,7.82
2018-04-06T01:35:47.674Z,7.77
2018-04-06T01:36:48.020Z,7.77
2018-04-06T01:37:47.978Z,7.75
2018-04-06T01:38:47.995Z,7.76
2018-04-06T01:39:47.438Z,7.79
2018-04-06T01:40:48.019Z,7.79
2018-04-06T01:41:48.031Z,7.83
2018-04-06T01:42:47.760Z,7.8
2018-04-06T01:43:48.052Z,7.8
2018-04-06T01:44:48.069Z,7.77
2018-04-06T01:45:48.082Z,7.82
2018-04-06T01:46:47.810Z,7.77
2018-04-06T01:47:48.104Z,7.73
2018-04-06T01:48:48.124Z,7.76
2018-04-06T01:49:48.139Z,7.73
2018-04-06T01:50:48.140Z,7.8
2018-04-06T01:51:48.166Z,7.75
2018-04-06T01:52:48.168Z,7.76
2018-04-06T01:53:48.180Z,7.72
2018-04-06T01:54:47.917Z,7.72
2018-04-06T01:55:47.921Z,7.7
2018-04-06T01:56:48.219Z,7.73
2018-04-06T01:57:48.232Z,7.76
2018-04-06T01:58:47.965Z,7.79
2018-04-06T01:59:48.256Z,7.7
2018-04-06T02:00:47.997Z,7.72
2018-04-06T02:01:48.001Z,7.67
2018-04-06T02:02:48.295Z,7.7
2018-04-06T02:03:48.306Z,7.67
2018-04-06T02:04:48.324Z,7.67
2018-04-06T02:05:48.335Z,7.66
2018-04-06T02:06:48.349Z,7.67
2018-04-06T02:07:48.371Z,7.63
2018-04-06T02:08:48.098Z,7.66
2018-04-06T02:09:48.383Z,7.69
2018-04-06T02:10:48.116Z,7.61
2018-04-06T02:11:47.845Z,7.61
2018-04-06T02:12:48.421Z,7.63
2018-04-06T02:13:48.154Z,7.7
2018-04-06T02:14:47.884Z,7.61
2018-04-06T02:15:48.463Z,7.66
2018-04-06T02:16:48.191Z,7.66
2018-04-06T02:17:48.204Z,7.6
2018-04-06T02:18:47.933Z,7.6
2018-04-06T02:19:48.513Z,7.61
2018-04-06T02:20:48.526Z,7.63
2018-04-06T02:21:48.258Z,7.63
2018-04-06T02:22:48.553Z,7.61
2018-04-06T02:23:47.999Z,7.67
2018-04-06T02:24:48.853Z,7.56
2018-04-06T02:25:48.315Z,7.57
2018-04-06T02:26:48.603Z,7.66
2018-04-06T02:27:48.610Z,7.58
2018-04-06T02:28:48.623Z,7.61
2018-04-06T02:29:48.363Z,7.51
2018-04-06T02:30:48.658Z,7.48
2018-04-06T02:31:48.673Z,7.61
2018-04-06T02:32:48.391Z,7.45
2018-04-06T02:33:48.435Z,7.48
2018-04-06T02:34:48.713Z,7.48
2018-04-06T02:35:48.428Z,7.51
2018-04-06T02:36:48.464Z,7.56
2018-04-06T02:37:48.459Z,7.47
2018-04-06T02:38:48.757Z,7.53
2018-04-06T02:39:48.499Z,7.53
2018-04-06T02:40:48.799Z,7.48
2018-04-06T02:41:48.227Z,7.48
2018-04-06T02:42:48.808Z,7.53
2018-04-06T02:43:48.938Z,7.5
2018-04-06T02:44:48.260Z,7.53
2018-04-06T02:45:48.843Z,7.48
2018-04-06T02:46:48.575Z,7.45
2018-04-06T02:47:48.869Z,7.51
2018-04-06T02:48:48.594Z,7.51
2018-04-06T02:49:48.321Z,7.45
2018-04-06T02:50:48.904Z,7.51
2018-04-06T02:51:48.913Z,7.42
2018-04-06T02:52:48.650Z,7.51
2018-04-06T02:53:48.371Z,7.5
2018-04-06T02:54:48.962Z,7.51
2018-04-06T02:55:48.680Z,7.39
2018-04-06T02:56:48.710Z,7.45
2018-04-06T02:57:48.723Z,7.47
2018-04-06T02:58:49.012Z,7.43
2018-04-06T02:59:48.452Z,7.42
2018-04-06T03:00:49.029Z,7.45
2018-04-06T03:01:48.762Z,7.47
2018-04-06T03:02:48.770Z,7.39
2018-04-06T03:03:48.784Z,7.4
2018-04-06T03:04:49.080Z,7.4
2018-04-06T03:05:49.090Z,7.38
2018-04-06T03:06:48.826Z,7.36
2018-04-06T03:07:48.833Z,7.39
2018-04-06T03:08:48.857Z,7.5
2018-04-06T03:09:49.156Z,7.47
2018-04-06T03:10:48.866Z,7.4
2018-04-06T03:11:48.879Z,7.42
2018-04-06T03:12:49.172Z,7.33
2018-04-06T03:13:48.913Z,7.35
2018-04-06T03:14:49.205Z,7.35
2018-04-06T03:15:48.929Z,7.36
2018-04-06T03:16:48.948Z,7.32
2018-04-06T03:17:49.239Z,7.35
2018-04-06T03:18:48.968Z,7.33
2018-04-06T03:19:49.261Z,7.32
2018-04-06T03:20:49.273Z,7.29
2018-04-06T03:21:48.721Z,7.29
2018-04-06T03:22:49.028Z,7.33
2018-04-06T03:23:49.310Z,7.31
2018-04-06T03:24:49.039Z,7.24
2018-04-06T03:25:49.334Z,7.28
2018-04-06T03:26:49.350Z,7.24
2018-04-06T03:27:49.365Z,7.32
2018-04-06T03:28:49.091Z,7.24
2018-04-06T03:29:49.112Z,7.33
2018-04-06T03:30:49.131Z,7.33
2018-04-06T03:31:49.415Z,7.24
2018-04-06T03:32:49.149Z,7.32
2018-04-06T03:33:49.441Z,7.31
2018-04-06T03:34:49.163Z,7.29
2018-04-06T03:35:49.182Z,7.25
2018-04-06T03:36:49.468Z,7.28
2018-04-06T03:37:49.486Z,7.31
2018-04-06T03:38:49.554Z,7.31
2018-04-06T03:39:49.512Z,7.2
2018-04-06T03:40:49.239Z,7.18
2018-04-06T03:41:48.968Z,7.21
2018-04-06T03:42:49.261Z,7.21
2018-04-06T03:43:49.274Z,7.24
2018-04-06T03:44:49.578Z,7.17
2018-04-06T03:45:49.583Z,7.23
2018-04-06T03:46:49.030Z,7.17
2018-04-06T03:47:49.326Z,7.14
2018-04-06T03:48:49.633Z,7.21
2018-04-06T03:49:49.633Z,7.21
2018-04-06T03:50:49.642Z,7.18
2018-04-06T03:51:49.684Z,7.2
2018-04-06T03:52:49.386Z,7.14
2018-04-06T03:53:49.114Z,7.17
2018-04-06T03:54:49.415Z,7.21
2018-04-06T03:55:49.140Z,7.15
2018-04-06T03:56:49.437Z,7.2
2018-04-06T03:57:49.728Z,7.17
2018-04-06T03:58:49.462Z,7.17
2018-04-06T03:59:49.472Z,7.23
2018-04-06T04:00:49.764Z,7.11
2018-04-06T04:01:49.213Z,7.15
2018-04-06T04:02:49.795Z,7.21
2018-04-06T04:03:49.518Z,7.2
2018-04-06T04:04:49.812Z,7.15
2018-04-06T04:05:49.544Z,7.18
2018-04-06T04:06:49.554Z,7.2
2018-04-06T04:07:49.287Z,7.15
2018-04-06T04:08:49.300Z,7.05
2018-04-06T04:09:49.874Z,7.18
2018-04-06T04:10:49.321Z,7.23
2018-04-06T04:11:49.657Z,7.15
2018-04-06T04:12:49.930Z,7.1
2018-04-06T04:13:50.433Z,7.1
2018-04-06T04:14:49.688Z,7.11
2018-04-06T04:15:49.952Z,7.07
2018-04-06T04:16:49.969Z,7.1
2018-04-06T04:17:49.695Z,7.07
2018-04-06T04:18:49.705Z,7.13
2018-04-06T04:19:50.005Z,7.06
2018-04-06T04:20:49.728Z,7.13
2018-04-06T04:21:49.740Z,7.11
2018-04-06T04:22:50.036Z,7.06
2018-04-06T04:23:50.056Z,7.1
2018-04-06T04:24:50.067Z,7.06
2018-04-06T04:25:49.788Z,7.03
2018-04-06T04:26:49.519Z,7.15
2018-04-06T04:27:49.529Z,7.07
2018-04-06T04:28:49.834Z,7.1
2018-04-06T04:29:49.840Z,7.07
2018-04-06T04:30:49.850Z,7.05
2018-04-06T04:31:49.578Z,7
2018-04-06T04:32:50.207Z,7.03
2018-04-06T04:33:49.890Z,7.05
2018-04-06T04:34:50.114Z,7.03
2018-04-06T04:35:49.922Z,7.03
2018-04-06T04:36:49.922Z,7.06
2018-04-06T04:37:49.936Z,7.1
2018-04-06T04:38:50.234Z,7.06
2018-04-06T04:39:49.958Z,7.11
2018-04-06T04:40:50.256Z,7.05
2018-04-06T04:41:50.265Z,7.07
2018-04-06T04:42:49.710Z,7.06
2018-04-06T04:43:50.293Z,7.07
2018-04-06T04:44:50.655Z,7.06
2018-04-06T04:45:50.038Z,7.07
2018-04-06T04:46:50.439Z,7.02
2018-04-06T04:47:50.104Z,7.13
2018-04-06T04:48:50.353Z,7.05
2018-04-06T04:49:50.079Z,7.03
2018-04-06T04:50:50.098Z,7.03
2018-04-06T04:51:50.392Z,7.03
2018-04-06T04:52:50.448Z,7.02
2018-04-06T04:53:50.138Z,7
2018-04-06T04:54:49.857Z,7.11
2018-04-06T04:55:50.167Z,7.05
2018-04-06T04:56:50.169Z,7.11
2018-04-06T04:57:49.943Z,7.05
2018-04-06T04:58:50.488Z,7.05
2018-04-06T04:59:49.923Z,7.03
2018-04-06T05:00:50.214Z,7.03
2018-04-06T05:01:50.513Z,7.03
2018-04-06T05:02:50.289Z,7.05
2018-04-06T05:03:50.247Z,7.03
2018-04-06T05:04:50.480Z,7.05
2018-04-06T05:05:50.426Z,7.03
2018-04-06T05:06:50.283Z,6.93
2018-04-06T05:07:50.582Z,7
2018-04-06T05:08:50.587Z,6.95
2018-04-06T05:09:50.601Z,7.05
2018-04-06T05:10:50.620Z,6.95
2018-04-06T05:11:50.347Z,6.95
2018-04-06T05:12:50.688Z,7.02
2018-04-06T05:13:50.650Z,7.05
2018-04-06T05:14:50.394Z,6.92
2018-04-06T05:15:50.402Z,7
2018-04-06T05:16:50.694Z,6.96
2018-04-06T05:17:50.543Z,7.03
2018-04-06T05:18:50.432Z,7.05
2018-04-06T05:19:50.448Z,7.06
2018-04-06T05:20:50.745Z,6.99
2018-04-06T05:21:50.468Z,7.06
2018-04-06T05:22:50.759Z,7.03
2018-04-06T05:23:50.771Z,7.05
2018-04-06T05:24:50.787Z,7.03
2018-04-06T05:25:50.514Z,7.06
2018-04-06T05:26:50.814Z,7.05
2018-04-06T05:27:50.536Z,7
2018-04-06T05:28:50.829Z,7.03
2018-04-06T05:29:50.853Z,7.05
2018-04-06T05:30:50.575Z,7.05
2018-04-06T05:31:50.872Z,7.05
2018-04-06T05:32:50.599Z,7.06
2018-04-06T05:33:50.610Z,7.03
2018-04-06T05:34:50.340Z,7.06
2018-04-06T05:35:50.349Z,7.11
2018-04-06T05:36:50.930Z,7.02
2018-04-06T05:37:50.987Z,7
2018-04-06T05:38:50.908Z,7.06
2018-04-06T05:39:50.964Z,7.03
2018-04-06T05:40:50.692Z,7.06
2018-04-06T05:41:50.988Z,7.1
2018-04-06T05:42:50.769Z,7
2018-04-06T05:43:51.013Z,7.02
2018-04-06T05:44:51.034Z,7.03
2018-04-06T05:45:50.756Z,7.02
2018-04-06T05:46:50.764Z,7.06
2018-04-06T05:47:50.778Z,7.07
2018-04-06T05:48:50.513Z,7.06
2018-04-06T05:49:50.804Z,6.99
2018-04-06T05:50:50.813Z,7.13
2018-04-06T05:51:51.110Z,7.11
2018-04-06T05:52:51.120Z,7.13
2018-04-06T05:53:50.850Z,7.06
2018-04-06T05:54:51.144Z,7.13
2018-04-06T05:55:50.870Z,7.17
2018-04-06T05:56:51.172Z,7.17
2018-04-06T05:57:50.946Z,7.21
2018-04-06T05:58:50.909Z,7.18
2018-04-06T05:59:50.923Z,7.18
2018-04-06T06:00:51.217Z,7.15
2018-04-06T06:01:51.238Z,7.13
2018-04-06T06:02:51.012Z,7.17
2018-04-06T06:03:51.255Z,7.14
2018-04-06T06:04:51.264Z,7.15
2018-04-06T06:05:50.998Z,7.23
2018-04-06T06:06:51.010Z,7.2
2018-04-06T06:07:51.022Z,7.18
2018-04-06T06:08:51.317Z,7.18
2018-04-06T06:09:51.125Z,7.15
2018-04-06T06:10:51.056Z,7.2
2018-04-06T06:11:51.073Z,7.21
2018-04-06T06:12:51.079Z,7.31
2018-04-06T06:13:51.377Z,7.36
2018-04-06T06:14:51.103Z,7.33
2018-04-06T06:15:51.113Z,7.25
2018-04-06T06:16:51.128Z,7.25
2018-04-06T06:17:51.570Z,7.35
2018-04-06T06:18:51.438Z,7.38
2018-04-06T06:19:51.447Z,7.43
2018-04-06T06:20:51.464Z,7.39
2018-04-06T06:21:51.477Z,7.5
2018-04-06T06:22:51.485Z,7.48
2018-04-06T06:23:51.492Z,7.5
2018-04-06T06:24:51.507Z,7.51
2018-04-06T06:25:51.242Z,7.53
2018-04-06T06:26:50.963Z,7.66
2018-04-06T06:27:51.310Z,7.61
2018-04-06T06:28:51.600Z,7.66
2018-04-06T06:29:51.570Z,7.63
2018-04-06T06:30:51.305Z,7.72
2018-04-06T06:31:51.487Z,7.72
2018-04-06T06:32:51.324Z,7.7
2018-04-06T06:33:51.663Z,7.8
2018-04-06T06:34:51.349Z,7.79
2018-04-06T06:35:51.844Z,7.9
2018-04-06T06:36:51.747Z,7.85
2018-04-06T06:37:51.299Z,7.91
2018-04-06T06:38:51.109Z,7.98
2018-04-06T06:39:51.690Z,7.98
2018-04-06T06:40:51.661Z,7.95
2018-04-06T06:41:51.438Z,7.98
2018-04-06T06:42:51.746Z,8.06
2018-04-06T06:43:51.765Z,8.09
2018-04-06T06:44:51.589Z,8.09
2018-04-06T06:45:51.476Z,8.15
2018-04-06T06:46:51.785Z,8.19
2018-04-06T06:47:51.901Z,8.19
2018-04-06T06:48:51.799Z,8.27
2018-04-06T06:49:51.813Z,8.24
2018-04-06T06:50:51.822Z,8.36
2018-04-06T06:51:51.548Z,8.38
2018-04-06T06:52:51.850Z,8.45
2018-04-06T06:53:51.858Z,8.46
2018-04-06T06:54:51.877Z,8.49
2018-04-06T06:55:51.601Z,8.55
2018-04-06T06:56:51.897Z,8.63
2018-04-06T06:57:51.905Z,8.61
2018-04-06T06:58:51.919Z,8.71
2018-04-06T06:59:52.167Z,8.76
2018-04-06T07:00:51.663Z,8.73
2018-04-06T07:01:51.959Z,8.71
2018-04-06T07:02:51.458Z,8.82
2018-04-06T07:03:51.990Z,8.88
2018-04-06T07:04:51.713Z,8.87
2018-04-06T07:05:51.724Z,8.92
2018-04-06T07:06:51.740Z,8.95
2018-04-06T07:07:51.522Z,9.02
2018-04-06T07:08:52.040Z,9.06
2018-04-06T07:09:52.060Z,9.14
2018-04-06T07:10:51.792Z,9.13
2018-04-06T07:11:51.797Z,9.18
2018-04-06T07:12:52.099Z,9.26
2018-04-06T07:13:51.828Z,9.25
2018-04-06T07:14:52.131Z,9.36
2018-04-06T07:15:51.849Z,9.32
2018-04-06T07:16:51.576Z,9.44
2018-04-06T07:17:51.880Z,9.4
2018-04-06T07:18:51.891Z,9.54
2018-04-06T07:19:52.185Z,9.56
2018-04-06T07:20:52.194Z,9.55
2018-04-06T07:21:51.925Z,9.68
2018-04-06T07:22:52.229Z,9.66
2018-04-06T07:23:52.239Z,9.66
2018-04-06T07:24:52.251Z,9.74
2018-04-06T07:25:51.978Z,9.64
2018-04-06T07:26:51.713Z,9.82
2018-04-06T07:27:52.289Z,9.77
2018-04-06T07:28:52.014Z,9.89
2018-04-06T07:29:52.312Z,9.92
2018-04-06T07:30:52.044Z,9.89
2018-04-06T07:31:52.344Z,9.86
2018-04-06T07:32:51.787Z,9.97
2018-04-06T07:33:51.798Z,10.1
2018-04-06T07:34:51.813Z,10.12
2018-04-06T07:35:52.394Z,10.1
2018-04-06T07:36:52.407Z,10.13
2018-04-06T07:37:51.924Z,10.09
2018-04-06T07:38:52.429Z,10.12
2018-04-06T07:39:52.449Z,10.1
2018-04-06T07:40:52.174Z,10.17
2018-04-06T07:41:52.470Z,10.26
2018-04-06T07:42:52.481Z,10.28
2018-04-06T07:43:51.928Z,10.28
2018-04-06T07:44:52.563Z,10.35
2018-04-06T07:45:52.524Z,10.34
2018-04-06T07:46:52.543Z,10.41
2018-04-06T07:47:52.270Z,10.42
2018-04-06T07:48:53.097Z,10.4
2018-04-06T07:49:52.012Z,10.46
2018-04-06T07:50:52.386Z,10.42
2018-04-06T07:51:52.317Z,10.42
2018-04-06T07:52:52.045Z,10.46
2018-04-06T07:53:52.349Z,10.42
2018-04-06T07:54:52.358Z,10.48
2018-04-06T07:55:52.769Z,10.57
2018-04-06T07:56:52.666Z,10.63
2018-04-06T07:57:52.687Z,10.63
2018-04-06T07:58:52.414Z,10.68
2018-04-06T07:59:52.706Z,10.67
2018-04-06T08:00:52.731Z,10.71
2018-04-06T08:01:52.453Z,10.75
2018-04-06T08:02:52.753Z,10.81
2018-04-06T08:03:52.811Z,10.75
2018-04-06T08:04:52.509Z,10.82
2018-04-06T08:05:52.515Z,10.89
2018-04-06T08:06:52.525Z,10.87
2018-04-06T08:07:52.537Z,10.94
2018-04-06T08:08:52.600Z,10.99
2018-04-06T08:09:52.844Z,10.96
2018-04-06T08:10:52.571Z,11.1
2018-04-06T08:11:52.587Z,11.15
2018-04-06T08:12:52.599Z,11.17
2018-04-06T08:13:52.960Z,11.14
2018-04-06T08:14:52.929Z,11.17
2018-04-06T08:15:52.931Z,11.15
2018-04-06T08:16:52.662Z,11.12
2018-04-06T08:17:52.670Z,11.15
2018-04-06T08:18:52.687Z,11.19
2018-04-06T08:19:52.714Z,11.25
2018-04-06T08:20:52.995Z,11.22
2018-04-06T08:21:53.013Z,11.17
2018-04-06T08:22:52.748Z,11.19
2018-04-06T08:23:52.753Z,11.14
2018-04-06T08:24:53.138Z,11.23
2018-04-06T08:25:52.504Z,11.27
2018-04-06T08:26:52.795Z,11.36
2018-04-06T08:27:53.117Z,11.35
2018-04-06T08:28:52.826Z,11.52
2018-04-06T08:29:53.124Z,11.59
2018-04-06T08:30:52.856Z,11.75
2018-04-06T08:31:52.582Z,11.81
2018-04-06T08:32:52.892Z,11.87
2018-04-06T08:33:52.942Z,11.99
2018-04-06T08:34:52.961Z,12.18
2018-04-06T08:35:53.202Z,12.31
2018-04-06T08:36:53.228Z,12.35
2018-04-06T08:37:52.961Z,12.42
2018-04-06T08:38:53.302Z,12.49
2018-04-06T08:39:52.695Z,12.64
2018-04-06T08:40:53.277Z,12.64
2018-04-06T08:41:53.288Z,12.73
2018-04-06T08:42:53.023Z,12.79
2018-04-06T08:43:53.038Z,12.83
2018-04-06T08:44:53.046Z,12.86
2018-04-06T08:45:53.358Z,12.91
2018-04-06T08:46:53.371Z,12.95
2018-04-06T08:47:53.108Z,12.86
2018-04-06T08:48:53.392Z,12.98
2018-04-06T08:49:53.432Z,13.04
2018-04-06T08:50:53.420Z,12.98
2018-04-06T08:51:53.152Z,13.04
2018-04-06T08:52:53.170Z,13.18
2018-04-06T08:53:53.465Z,13.19
2018-04-06T08:54:53.630Z,13.35
2018-04-06T08:55:52.927Z,13.35
2018-04-06T08:56:53.566Z,13.37
2018-04-06T08:57:52.960Z,13.35
2018-04-06T08:58:53.266Z,13.53
2018-04-06T08:59:53.550Z,13.59
2018-04-06T09:00:53.573Z,13.67
2018-04-06T09:01:53.305Z,13.75
2018-04-06T09:02:53.597Z,13.78
2018-04-06T09:03:53.612Z,13.77
2018-04-06T09:04:53.061Z,13.9
2018-04-06T09:05:53.663Z,13.85
2018-04-06T09:06:53.374Z,13.92
2018-04-06T09:07:53.683Z,13.95
2018-04-06T09:08:53.413Z,13.95
2018-04-06T09:09:53.714Z,14.07
2018-04-06T09:10:53.730Z,14.05
2018-04-06T09:11:53.735Z,14.04
2018-04-06T09:12:53.473Z,14.22
2018-04-06T09:13:53.772Z,14.26
2018-04-06T09:14:53.500Z,14.26
2018-04-06T09:15:53.811Z,14.36
2018-04-06T09:16:53.818Z,14.36
2018-04-06T09:17:53.829Z,14.43
2018-04-06T09:18:53.845Z,14.48
2018-04-06T09:19:53.859Z,14.53
2018-04-06T09:20:53.886Z,14.51
2018-04-06T09:21:53.890Z,14.63
2018-04-06T09:22:53.639Z,14.63
2018-04-06T09:23:53.920Z,14.68
2018-04-06T09:24:53.976Z,14.79
2018-04-06T09:25:53.672Z,14.77
2018-04-06T09:26:53.689Z,14.72
2018-04-06T09:27:53.984Z,14.81
2018-04-06T09:28:53.722Z,14.78
2018-04-06T09:29:53.735Z,14.79
2018-04-06T09:30:53.755Z,14.79
2018-04-06T09:31:53.764Z,14.84
2018-04-06T09:32:54.061Z,14.96
2018-04-06T09:33:54.083Z,14.96
2018-04-06T09:34:53.542Z,14.99
2018-04-06T09:35:53.549Z,15.07
2018-04-06T09:36:53.564Z,15.04
2018-04-06T09:37:54.139Z,15.11
2018-04-06T09:38:54.162Z,15.19
2018-04-06T09:39:53.925Z,15.18
2018-04-06T09:40:53.912Z,15.21
2018-04-06T09:41:53.927Z,15.28
2018-04-06T09:42:53.946Z,15.31
2018-04-06T09:43:54.251Z,15.31
2018-04-06T09:44:53.979Z,15.25
2018-04-06T09:45:54.280Z,15.31
2018-04-06T09:46:54.286Z,15.28
2018-04-06T09:47:54.026Z,15.35
2018-04-06T09:48:54.042Z,15.37
2018-04-06T09:49:54.058Z,15.46
2018-04-06T09:50:54.363Z,15.51
2018-04-06T09:51:54.087Z,15.61
2018-04-06T09:52:54.108Z,15.73
2018-04-06T09:53:54.412Z,15.76
2018-04-06T09:54:54.470Z,15.97
2018-04-06T09:55:54.158Z,15.94
2018-04-06T09:56:54.173Z,16.04
2018-04-06T09:57:53.923Z,16
2018-04-06T09:58:53.924Z,16.04
2018-04-06T09:59:54.511Z,16.13
2018-04-06T10:00:54.249Z,16.26
2018-04-06T10:01:54.258Z,16.33
2018-04-06T10:02:54.623Z,16.36
2018-04-06T10:03:54.572Z,16.33
2018-04-06T10:04:54.593Z,16.41
2018-04-06T10:05:54.607Z,16.47
2018-04-06T10:06:54.625Z,16.51
2018-04-06T10:07:54.646Z,16.58
2018-04-06T10:08:54.133Z,16.68
2018-04-06T10:09:54.685Z,16.61
2018-04-06T10:10:54.548Z,16.75
2018-04-06T10:11:54.707Z,16.76
2018-04-06T10:12:54.444Z,16.81
2018-04-06T10:13:54.472Z,16.87
2018-04-06T10:14:54.478Z,16.79
2018-04-06T10:15:54.802Z,16.9
2018-04-06T10:16:54.519Z,16.91
2018-04-06T10:17:54.541Z,16.97
2018-04-06T10:18:54.545Z,16.97
2018-04-06T10:19:54.568Z,17.04
2018-04-06T10:20:54.593Z,17.04
2018-04-06T10:21:54.666Z,17.06
2018-04-06T10:22:54.902Z,17.09
2018-04-06T10:23:54.930Z,17.16
2018-04-06T10:24:54.941Z,17.2
2018-04-06T10:25:54.956Z,17.23
2018-04-06T10:26:54.969Z,17.34
2018-04-06T10:27:54.992Z,17.27
2018-04-06T10:28:54.448Z,17.33
2018-04-06T10:29:54.794Z,17.42
2018-04-06T10:30:54.762Z,17.49
2018-04-06T10:31:55.062Z,17.52
2018-04-06T10:32:54.803Z,17.52
2018-04-06T10:33:55.094Z,17.57
2018-04-06T10:34:54.837Z,17.67
2018-04-06T10:35:55.137Z,17.59
2018-04-06T10:36:55.171Z,17.71
2018-04-06T10:37:55.219Z,17.67
2018-04-06T10:38:54.904Z,17.72
2018-04-06T10:39:54.921Z,17.8
2018-04-06T10:40:54.943Z,17.9
2018-04-06T10:41:54.959Z,17.97
2018-04-06T10:42:55.259Z,18.01
2018-04-06T10:43:55.275Z,18.01
2018-04-06T10:44:55.294Z,18.01
2018-04-06T10:45:55.315Z,18.07
2018-04-06T10:46:55.105Z,18
2018-04-06T10:47:55.355Z,18.07
2018-04-06T10:48:55.091Z,18.07
2018-04-06T10:49:54.823Z,18.11
2018-04-06T10:50:55.124Z,18.16
2018-04-06T10:51:55.429Z,18.16
2018-04-06T10:52:55.163Z,18.1
2018-04-06T10:53:55.464Z,18.1
2018-04-06T10:54:55.537Z,18.11
2018-04-06T10:55:54.935Z,18.23
2018-04-06T10:56:55.522Z,18.2
2018-04-06T10:57:55.257Z,18.25
2018-04-06T10:58:55.567Z,18.23
2018-04-06T10:59:55.299Z,18.29
2018-04-06T11:00:55.595Z,18.29
2018-04-06T11:01:55.340Z,18.28
2018-04-06T11:02:55.636Z,18.38
2018-04-06T11:03:55.650Z,18.43
2018-04-06T11:04:55.386Z,18.43
2018-04-06T11:05:55.687Z,18.5
2018-04-06T11:06:55.708Z,18.5
2018-04-06T11:07:55.164Z,18.52
2018-04-06T11:08:55.465Z,18.6
2018-04-06T11:09:55.769Z,18.59
2018-04-06T11:10:55.785Z,18.62
2018-04-06T11:11:55.804Z,18.65
2018-04-06T11:12:55.832Z,18.73
2018-04-06T11:13:55.554Z,18.86
2018-04-06T11:14:55.868Z,18.84
2018-04-06T11:15:55.890Z,18.83
2018-04-06T11:16:55.616Z,18.92
2018-04-06T11:17:55.929Z,18.93
2018-04-06T11:18:55.370Z,18.96
2018-04-06T11:19:55.961Z,19.04
2018-04-06T11:20:55.692Z,19.09
2018-04-06T11:21:55.996Z,19.14
2018-04-06T11:22:56.084Z,19.19
2018-04-06T11:23:55.754Z,19.26
2018-04-06T11:24:56.058Z,19.3
2018-04-06T11:25:56.074Z,19.29
2018-04-06T11:26:55.809Z,19.33
2018-04-06T11:27:56.145Z,19.47
2018-04-06T11:28:56.129Z,19.4
2018-04-06T11:29:55.869Z,19.48
2018-04-06T11:30:56.171Z,19.51
2018-04-06T11:31:55.904Z,19.48
2018-04-06T11:32:56.206Z,19.63
2018-04-06T11:33:56.227Z,19.58
2018-04-06T11:34:55.965Z,19.66
2018-04-06T11:35:56.268Z,19.66
2018-04-06T11:36:56.001Z,19.79
2018-04-06T11:37:56.366Z,19.74
2018-04-06T11:38:56.330Z,19.86
2018-04-06T11:39:55.777Z,19.86
2018-04-06T11:40:56.384Z,19.96
2018-04-06T11:41:56.110Z,20
2018-04-06T11:42:56.408Z,20.04
2018-04-06T11:43:56.430Z,20.04
2018-04-06T11:44:56.446Z,20.1
2018-04-06T11:45:56.182Z,20.13
2018-04-06T11:46:55.921Z,20.19
2018-04-06T11:47:56.228Z,20.18
2018-04-06T11:48:56.527Z,20.24
2018-04-06T11:49:56.555Z,20.26
2018-04-06T11:50:56.286Z,20.28
2018-04-06T11:51:56.304Z,20.26
2018-04-06T11:52:56.606Z,20.28
2018-04-06T11:53:56.624Z,20.21
2018-04-06T11:54:56.361Z,20.28
2018-04-06T11:55:56.666Z,20.41
2018-04-06T11:56:56.408Z,20.44
2018-04-06T11:57:56.704Z,20.47
2018-04-06T11:58:56.444Z,20.4
2018-04-06T11:59:56.757Z,20.48
2018-04-06T12:00:56.488Z,20.44
2018-04-06T12:01:56.502Z,20.47
2018-04-06T12:02:56.808Z,20.58
2018-04-06T12:03:56.884Z,20.48
2018-04-06T12:04:56.580Z,20.6
2018-04-06T12:05:56.302Z,20.6
2018-04-06T12:06:56.889Z,20.62
2018-04-06T12:07:56.734Z,20.63
2018-04-06T12:08:56.929Z,20.63
2018-04-06T12:09:56.672Z,20.63
2018-04-06T12:10:56.974Z,20.67
2018-04-06T12:11:56.713Z,20.67
2018-04-06T12:12:57.026Z,20.72
2018-04-06T12:13:57.178Z,20.6
2018-04-06T12:14:56.776Z,20.7
2018-04-06T12:15:56.801Z,20.7
2018-04-06T12:16:57.099Z,20.77
2018-04-06T12:17:57.120Z,20.78
2018-04-06T12:18:56.853Z,20.77
2018-04-06T12:19:56.904Z,20.8
2018-04-06T12:20:56.623Z,20.75
2018-04-06T12:21:57.211Z,20.87
2018-04-06T12:22:57.221Z,20.82
2018-04-06T12:23:57.245Z,20.81
2018-04-06T12:24:57.277Z,20.84
2018-04-06T12:25:57.005Z,20.84
2018-04-06T12:26:57.310Z,20.88
2018-04-06T12:27:57.044Z,20.88
2018-04-06T12:28:57.354Z,20.88
2018-04-06T12:29:57.090Z,20.82
2018-04-06T12:30:57.108Z,20.85
2018-04-06T12:31:57.134Z,20.88
2018-04-06T12:32:57.436Z,20.85
2018-04-06T12:33:57.218Z,20.84
2018-04-06T12:34:57.194Z,20.82
2018-04-06T12:35:57.215Z,20.84
2018-04-06T12:36:57.525Z,20.84
2018-04-06T12:37:56.971Z,20.9
2018-04-06T12:38:56.992Z,20.92
2018-04-06T12:39:57.605Z,20.9
2018-04-06T12:40:57.611Z,20.95
2018-04-06T12:41:57.395Z,21.03
2018-04-06T12:42:57.363Z,21.07
2018-04-06T12:43:57.387Z,21.05
2018-04-06T12:44:57.683Z,21.07
2018-04-06T12:45:57.425Z,21.06
2018-04-06T12:46:57.726Z,21.03
2018-04-06T12:47:57.751Z,21.05
2018-04-06T12:48:57.917Z,21.15
2018-04-06T12:49:57.794Z,21.09
2018-04-06T12:50:57.814Z,21.07
2018-04-06T12:51:57.556Z,21.12
2018-04-06T12:52:57.576Z,21.14
2018-04-06T12:53:57.309Z,21.11
2018-04-06T12:54:57.901Z,21.14
2018-04-06T12:55:57.966Z,21.21
2018-04-06T12:56:57.942Z,21.18
2018-04-06T12:57:57.963Z,21.15
2018-04-06T12:58:57.698Z,21.2
2018-04-06T12:59:58.012Z,21.14
2018-04-06T13:00:58.039Z,21.27
2018-04-06T13:01:58.049Z,21.3
2018-04-06T13:02:58.116Z,21.21
2018-04-06T13:03:57.527Z,21.29
2018-04-06T13:04:58.111Z,21.21
2018-04-06T13:05:57.565Z,21.22
2018-04-06T13:06:57.589Z,21.25
2018-04-06T13:07:57.610Z,21.32
2018-04-06T13:08:57.629Z,21.29
2018-04-06T13:09:58.261Z,21.3
2018-04-06T13:10:57.958Z,21.37
2018-04-06T13:11:57.988Z,21.36